Time;durP1;ratioP1;P1;durP2;ratioP2;P2;SDS_P1;SDS_P2;PMS_P1;PMS_P2;Temp;Humidity;BMP_temperature;BMP_pressure;BME280_temperature;BME280_humidity;BME280_pressure;Samples;Min_cycle;Max_cycle;Signal;HPM_P1;HPM_P2
2022/05/10 00:00:55;;;;;;;14.60;8.20;;;;;;;20.67;51.69;101521.94;5003872;28;20041;-68
2022/05/10 00:03:24;;;;;;;13.45;8.32;;;;;;;20.73;51.78;101514.09;5006966;28;20053;-70
2022/05/10 00:05:51;;;;;;;15.60;8.15;;;;;;;20.74;51.60;101516.50;4973348;28;20066;-68
2022/05/10 00:08:19;;;;;;;12.32;7.63;;;;;;;20.65;51.88;101507.47;5009738;28;20065;-68
2022/05/10 00:10:47;;;;;;;11.70;7.45;;;;;;;20.58;51.93;101514.88;4988907;28;20068;-62
2022/05/10 00:13:14;;;;;;;14.20;7.50;;;;;;;20.60;52.11;101513.38;5007413;28;20042;-63
2022/05/10 00:15:42;;;;;;;11.85;7.28;;;;;;;20.59;51.79;101508.91;4987143;28;20058;-67
2022/05/10 00:18:13;;;;;;;12.80;7.75;;;;;;;20.82;51.97;101504.31;4989416;28;20058;-63
2022/05/10 00:20:41;;;;;;;12.00;7.82;;;;;;;20.67;51.95;101495.91;4985253;28;20115;-62
2022/05/10 00:23:08;;;;;;;11.35;8.23;;;;;;;20.58;52.26;101498.91;4990264;28;20058;-68
2022/05/10 00:25:38;;;;;;;15.85;8.90;;;;;;;20.52;52.24;101503.13;4983512;28;20053;-68
2022/05/10 00:28:06;;;;;;;14.80;8.90;;;;;;;20.47;52.57;101502.63;5004080;28;20119;-69
2022/05/10 00:30:33;;;;;;;15.05;8.85;;;;;;;20.60;52.60;101496.56;4985069;28;20060;-68
2022/05/10 00:33:01;;;;;;;18.02;9.80;;;;;;;20.60;52.61;101492.94;4986147;28;20517;-68
2022/05/10 00:35:31;;;;;;;14.02;9.23;;;;;;;20.43;52.69;101501.72;4997652;28;20050;-68
2022/05/10 00:38:01;;;;;;;14.23;8.63;;;;;;;20.40;52.92;101497.63;5006068;28;20044;-63
2022/05/10 00:40:31;;;;;;;13.65;8.98;;;;;;;20.58;52.63;101487.72;5005726;28;20501;-62
2022/05/10 00:43:16;;;;;;;13.88;8.25;;;;;;;20.39;52.94;101486.81;4982014;28;20049;-63
2022/05/10 00:46:13;;;;;;;11.05;7.47;;;;;;;20.46;52.94;101481.38;4970401;28;20466;-61
2022/05/10 00:48:47;;;;;;;14.40;7.68;;;;;;;20.35;52.68;101485.88;4960648;28;20069;-68
2022/05/10 00:51:56;;;;;;;14.27;8.00;;;;;;;20.37;52.72;101469.56;5014789;28;20057;-67
2022/05/10 00:54:32;;;;;;;13.93;7.53;;;;;;;20.41;52.67;101467.66;4993513;28;20601;-63
2022/05/10 00:57:16;;;;;;;13.15;8.02;;;;;;;20.47;53.08;101472.63;5004886;28;20425;-63
2022/05/10 00:59:55;;;;;;;14.73;7.32;;;;;;;20.38;53.46;101460.00;4988193;28;20054;-64
2022/05/10 01:02:40;;;;;;;11.50;7.50;;;;;;;20.37;52.75;101463.97;5002123;28;20053;-62
2022/05/10 01:05:11;;;;;;;13.50;7.13;;;;;;;20.37;53.04;101461.97;5003974;28;20522;-61
2022/05/10 01:07:49;;;;;;;13.20;8.10;;;;;;;20.28;53.35;101461.34;4999705;28;20074;-62
2022/05/10 01:10:46;;;;;;;12.57;7.75;;;;;;;20.34;53.25;101462.72;5002222;28;20050;-67
2022/05/10 01:13:23;;;;;;;13.63;8.07;;;;;;;20.31;53.66;101468.22;4983083;28;20065;-62
2022/05/10 01:16:05;;;;;;;10.90;7.30;;;;;;;20.39;53.44;101468.03;4996098;28;20058;-63
2022/05/10 01:18:33;;;;;;;12.13;7.55;;;;;;;20.31;53.50;101457.81;4985486;28;20049;-68
2022/05/10 01:21:15;;;;;;;11.13;7.70;;;;;;;20.21;53.69;101468.75;5004296;28;20420;-70
2022/05/10 01:23:42;;;;;;;12.70;7.70;;;;;;;20.13;54.01;101462.94;5001485;28;20076;-67
2022/05/10 01:26:31;;;;;;;12.60;7.50;;;;;;;20.07;54.27;101461.56;4996640;28;20101;-63
2022/05/10 01:29:02;;;;;;;14.63;6.88;;;;;;;20.12;54.32;101458.50;4999539;28;20481;-68
2022/05/10 01:31:39;;;;;;;11.98;7.95;;;;;;;20.13;53.62;101451.75;4983392;28;20049;-69
2022/05/10 01:34:11;;;;;;;12.60;7.65;;;;;;;20.23;54.03;101455.19;4980108;28;20165;-61
2022/05/10 01:36:49;;;;;;;12.35;8.05;;;;;;;20.16;54.11;101450.25;4979971;28;20042;-62
2022/05/10 01:39:21;;;;;;;11.82;7.22;;;;;;;20.07;53.90;101452.38;4995210;28;20042;-63
2022/05/10 01:42:02;;;;;;;11.55;8.05;;;;;;;20.20;53.82;101436.34;4997520;28;20053;-67
2022/05/10 01:44:34;;;;;;;23.52;7.82;;;;;;;20.15;53.93;101434.63;5001816;28;20057;-63
2022/05/10 01:47:10;;;;;;;12.35;7.78;;;;;;;20.22;53.75;101432.03;4970490;28;20046;-68
2022/05/10 01:49:40;;;;;;;13.02;7.97;;;;;;;20.28;53.84;101432.53;4981174;28;20061;-62
2022/05/10 01:52:13;;;;;;;;;;;;;;;20.11;53.77;101442.91;4999281;28;20053;-66
2022/05/10 01:54:40;;;;;;;13.73;7.38;;;;;;;20.11;54.19;101428.09;4997385;28;19929;-62
2022/05/10 01:57:09;;;;;;;12.70;7.13;;;;;;;20.08;54.52;101431.63;4985472;28;20421;-61
2022/05/10 01:59:38;;;;;;;11.50;7.35;;;;;;;20.14;54.33;101424.59;4989729;28;20043;-63
2022/05/10 02:02:07;;;;;;;10.48;7.43;;;;;;;20.10;54.12;101426.50;4989107;28;20079;-62
2022/05/10 02:04:37;;;;;;;11.73;7.55;;;;;;;20.06;53.93;101422.78;5008340;28;20056;-63
2022/05/10 02:07:10;;;;;;;12.82;7.53;;;;;;;19.98;54.75;101432.13;5007113;28;20050;-67
2022/05/10 02:10:00;;;;;;;12.82;7.97;;;;;;;20.00;54.46;101433.41;5004934;28;20057;-68
2022/05/10 02:12:45;;;;;;;12.35;8.00;;;;;;;20.02;54.45;101422.69;5008945;28;20046;-67
2022/05/10 02:15:28;;;;;;;11.80;7.97;;;;;;;20.03;54.40;101421.50;4994588;28;20923;-68
2022/05/10 02:18:24;;;;;;;12.80;7.78;;;;;;;20.22;54.03;101414.41;4970818;28;20050;-69
2022/05/10 02:20:55;;;;;;;13.35;7.22;;;;;;;20.18;54.27;101414.34;4986860;28;20058;-63
2022/05/10 02:23:45;;;;;;;12.80;8.65;;;;;;;20.22;53.85;101417.22;5008981;28;20054;-63
2022/05/10 02:26:16;;;;;;;13.02;7.85;;;;;;;20.12;54.19;101422.16;5004002;28;20050;-63
2022/05/10 02:29:08;;;;;;;9.93;7.28;;;;;;;20.11;54.96;101414.13;4991870;28;20061;-62
2022/05/10 02:34:34;;;;;;;11.40;7.78;;;;;;;20.06;54.45;101414.41;5007077;28;20060;-62
2022/05/10 02:37:01;;;;;;;12.85;7.28;;;;;;;20.13;54.48;101412.59;5007512;28;20374;-64
2022/05/10 02:39:29;;;;;;;12.02;7.03;;;;;;;20.17;53.99;101410.72;4988175;28;20066;-62
2022/05/10 02:41:58;;;;;;;12.32;7.45;;;;;;;20.19;53.96;101403.97;5002551;28;20050;-63
2022/05/10 02:44:26;;;;;;;12.17;6.97;;;;;;;20.10;54.06;101412.50;4974693;28;20519;-62
2022/05/10 02:46:55;;;;;;;11.20;6.75;;;;;;;20.05;54.27;101409.94;4988154;28;20309;-62
2022/05/10 02:49:23;;;;;;;12.15;7.40;;;;;;;20.07;53.61;101402.03;5005492;28;20053;-63
2022/05/10 02:51:50;;;;;;;11.07;6.72;;;;;;;20.11;53.89;101398.16;5004863;28;20426;-62
2022/05/10 02:54:17;;;;;;;14.70;7.47;;;;;;;20.13;53.81;101400.59;4990195;28;20054;-63
2022/05/10 02:56:45;;;;;;;12.85;6.80;;;;;;;20.23;54.41;101390.84;5006488;28;20053;-62
2022/05/10 02:59:22;;;;;;;11.57;7.00;;;;;;;20.19;53.92;101401.16;4986616;28;20076;-62
2022/05/10 03:01:52;;;;;;;10.73;6.65;;;;;;;20.16;53.75;101388.69;4973040;28;20057;-63
2022/05/10 03:04:22;;;;;;;13.52;6.82;;;;;;;20.13;54.06;101389.41;5003927;28;20053;-61
2022/05/10 03:06:49;;;;;;;11.95;6.60;;;;;;;20.17;53.45;101383.94;5003590;28;20054;-62
2022/05/10 03:09:16;;;;;;;10.80;6.70;;;;;;;20.12;53.68;101377.38;5008752;28;20069;-62
2022/05/10 03:11:44;;;;;;;9.40;6.30;;;;;;;20.12;53.32;101382.97;4990945;28;20374;-62
2022/05/10 03:14:12;;;;;;;11.80;6.60;;;;;;;20.20;53.62;101381.22;5007513;28;20049;-63
2022/05/10 03:16:39;;;;;;;9.05;6.00;;;;;;;20.24;53.36;101375.72;4988270;28;20054;-61
2022/05/10 03:19:07;;;;;;;9.43;5.85;;;;;;;20.26;52.56;101382.56;5005991;28;20050;-61
2022/05/10 03:21:38;;;;;;;10.82;6.60;;;;;;;20.26;52.76;101381.75;5006246;28;20045;-62
2022/05/10 03:24:06;;;;;;;12.95;6.32;;;;;;;20.33;52.87;101370.75;5006598;28;20050;-62
2022/05/10 03:26:34;;;;;;;11.43;5.80;;;;;;;20.34;52.52;101369.56;5006283;28;20054;-61
2022/05/10 03:29:02;;;;;;;10.68;5.60;;;;;;;20.35;52.79;101362.78;4977263;28;20496;-62
2022/05/10 03:31:30;;;;;;;9.80;5.68;;;;;;;20.34;52.86;101363.97;4990507;28;20061;-63
2022/05/10 03:36:44;;;;;;;8.95;5.85;;;;;;;20.33;51.64;101363.13;5006560;28;20064;-63
2022/05/10 03:39:13;;;;;;;9.55;5.90;;;;;;;20.49;51.37;101349.94;4989945;28;20049;-68
2022/05/10 03:41:41;;;;;;;11.55;5.53;;;;;;;20.43;51.78;101358.97;4974970;28;20172;-69
2022/05/10 03:44:09;;;;;;;8.88;5.72;;;;;;;20.44;51.65;101349.41;5007038;28;20494;-68
2022/05/10 03:46:37;;;;;;;9.63;5.18;;;;;;;20.42;50.57;101351.75;4984792;28;20389;-68
2022/05/10 03:49:04;;;;;;;9.63;5.25;;;;;;;20.48;50.97;101350.31;4987759;28;20061;-68
2022/05/10 03:51:32;;;;;;;8.95;4.80;;;;;;;20.56;50.44;101343.69;5005971;28;20050;-68
2022/05/10 03:54:01;;;;;;;7.60;5.05;;;;;;;20.53;50.97;101348.03;5003152;28;20056;-68
2022/05/10 03:56:29;;;;;;;10.98;5.20;;;;;;;20.42;49.95;101352.56;5008052;28;20153;-68
2022/05/10 03:58:58;;;;;;;7.43;5.03;;;;;;;20.35;50.40;101345.97;4988807;28;20049;-68
2022/05/10 04:01:27;;;;;;;6.22;4.65;;;;;;;20.51;50.55;101338.38;5005921;28;20505;-66
2022/05/10 04:03:54;;;;;;;8.55;4.63;;;;;;;20.48;50.45;101348.31;4989243;28;20073;-68
2022/05/10 04:06:28;;;;;;;8.68;5.10;;;;;;;20.59;49.77;101352.16;5007255;28;20421;-68
2022/05/10 04:08:55;;;;;;;8.82;4.63;;;;;;;20.59;49.55;101343.75;5003893;28;20046;-68
2022/05/10 04:11:23;;;;;;;8.85;5.70;;;;;;;20.67;50.40;101344.75;5005360;28;20789;-68
2022/05/10 04:13:51;;;;;;;9.18;4.97;;;;;;;20.64;49.53;101337.09;5006118;28;20072;-67
2022/05/10 04:16:21;;;;;;;11.25;5.40;;;;;;;20.61;49.59;101347.00;5006740;28;20049;-67
2022/05/10 04:18:49;;;;;;;12.80;5.55;;;;;;;20.63;49.91;101341.03;4986565;28;20049;-68
2022/05/10 04:21:16;;;;;;;10.27;5.32;;;;;;;20.61;49.78;101344.22;4990620;28;20399;-68
2022/05/10 04:23:43;;;;;;;10.27;5.70;;;;;;;20.58;49.51;101352.53;5006978;28;20133;-68
2022/05/10 04:26:13;;;;;;;8.85;5.28;;;;;;;20.62;49.95;101340.25;4987182;28;20046;-67
2022/05/10 04:28:41;;;;;;;8.75;5.07;;;;;;;20.65;49.28;101344.28;4987200;28;20053;-67
2022/05/10 04:31:09;;;;;;;9.20;4.95;;;;;;;20.75;49.05;101338.91;4987304;28;20481;-69
2022/05/10 04:33:36;;;;;;;7.05;4.97;;;;;;;20.76;49.60;101337.75;5006610;28;20058;-69
2022/05/10 04:36:05;;;;;;;12.13;5.40;;;;;;;20.74;48.94;101342.09;5005953;28;20050;-67
2022/05/10 04:38:32;;;;;;;14.20;5.18;;;;;;;20.78;49.11;101338.19;5006385;28;20505;-68
2022/05/10 04:43:45;;;;;;;10.10;5.05;;;;;;;20.62;49.10;101333.84;4985720;28;20057;-68
2022/05/10 04:46:12;;;;;;;8.20;4.63;;;;;;;20.70;48.30;101347.63;5003104;28;20770;-68
2022/05/10 04:48:40;;;;;;;11.73;4.20;;;;;;;20.75;48.83;101343.69;5009519;28;20050;-68
2022/05/10 04:51:07;;;;;;;8.90;5.18;;;;;;;20.90;49.00;101337.25;5002359;28;20398;-63
2022/05/10 04:53:35;;;;;;;8.13;4.55;;;;;;;20.89;48.68;101342.03;4954972;28;20062;-63
2022/05/10 04:56:03;;;;;;;9.45;4.55;;;;;;;20.70;47.42;101350.41;5002192;28;20385;-63
2022/05/10 04:58:31;;;;;;;7.70;4.60;;;;;;;20.72;48.83;101342.47;5004910;28;20046;-63
2022/05/10 05:01:02;;;;;;;7.47;4.78;;;;;;;20.84;48.30;101345.13;5008497;28;20053;-67
2022/05/10 05:03:30;;;;;;;8.88;4.50;;;;;;;20.72;48.63;101345.25;4998922;28;20060;-63
2022/05/10 05:05:57;;;;;;;17.02;4.75;;;;;;;20.85;48.56;101340.34;5006272;28;20050;-64
2022/05/10 05:08:26;;;;;;;8.48;4.53;;;;;;;20.94;48.41;101340.91;4968637;28;20057;-68
2022/05/10 05:10:54;;;;;;;8.27;4.68;;;;;;;20.92;48.73;101349.69;5002763;28;20580;-69
2022/05/10 05:13:21;;;;;;;7.28;4.82;;;;;;;20.99;48.78;101338.66;4999595;28;20141;-63
2022/05/10 05:15:48;;;;;;;9.88;4.38;;;;;;;20.89;48.39;101344.84;4991960;28;20050;-63
2022/05/10 05:18:16;;;;;;;10.57;4.85;;;;;;;20.98;48.50;101347.41;5000870;28;20057;-63
2022/05/10 05:20:44;;;;;;;12.50;5.75;;;;;;;20.98;48.61;101347.41;5004171;28;20061;-64
2022/05/10 05:23:12;;;;;;;13.05;5.93;;;;;;;20.95;48.43;101354.59;5000719;28;20049;-64
2022/05/10 05:25:41;;;;;;;9.82;4.88;;;;;;;20.99;49.16;101354.69;4998621;28;20054;-68
2022/05/10 05:28:09;;;;;;;7.97;5.05;;;;;;;20.97;48.57;101343.00;4988501;28;20057;-69
2022/05/10 05:30:38;;;;;;;10.50;4.80;;;;;;;20.99;48.83;101354.69;5007643;28;20402;-69
2022/05/10 05:33:05;;;;;;;9.88;4.95;;;;;;;20.89;49.06;101349.63;4986243;28;20644;-69
2022/05/10 05:35:33;;;;;;;11.98;5.72;;;;;;;21.06;48.77;101352.81;5002732;28;20045;-69
2022/05/10 05:38:01;;;;;;;9.93;5.03;;;;;;;20.68;48.21;101347.16;5008090;28;20046;-69
2022/05/10 05:40:29;;;;;;;9.85;4.50;;;;;;;20.77;48.84;101358.16;4989059;28;20050;-68
2022/05/10 05:42:56;;;;;;;11.18;4.57;;;;;;;20.90;49.24;101357.66;4979274;28;20053;-69
2022/05/10 05:45:24;;;;;;;8.93;4.68;;;;;;;20.93;48.29;101356.94;4987458;28;21000;-70
2022/05/10 05:48:01;;;;;;;9.10;4.95;;;;;;;20.84;48.51;101359.13;4991782;28;20411;-69
2022/05/10 05:50:28;;;;;;;12.23;4.65;;;;;;;20.83;48.62;101357.53;5005997;28;20050;-69
2022/05/10 05:52:57;;;;;;;10.70;5.30;;;;;;;20.84;48.85;101358.31;4991986;28;20065;-69
2022/05/10 05:55:28;;;;;;;10.02;5.72;;;;;;;20.74;48.30;101354.13;5005466;28;20132;-68
2022/05/10 05:57:57;;;;;;;9.57;4.82;;;;;;;20.82;48.44;101355.06;5005197;28;20409;-69
2022/05/10 06:00:25;;;;;;;14.88;5.32;;;;;;;20.95;51.62;101359.38;4993140;28;20038;-69
2022/05/10 06:02:54;;;;;;;18.58;5.88;;;;;;;21.02;53.50;101357.56;5008806;28;20059;-69
2022/05/10 06:05:23;;;;;;;17.23;5.43;;;;;;;21.17;56.12;101362.28;5008370;28;20046;-69
2022/05/10 06:07:51;;;;;;;14.75;5.72;;;;;;;21.19;55.97;101359.91;4988715;28;20054;-67
2022/05/10 06:10:19;;;;;;;13.07;5.22;;;;;;;21.19;55.27;101361.91;5007104;28;20046;-63
2022/05/10 06:12:47;;;;;;;9.23;5.40;;;;;;;21.22;55.17;101352.75;5001721;28;20432;-68
2022/05/10 06:15:18;;;;;;;16.38;5.28;;;;;;;21.14;52.93;101362.19;5006211;28;20045;-64
2022/05/10 06:17:48;;;;;;;14.32;5.65;;;;;;;21.23;54.32;101363.56;4999164;28;20490;-65
2022/05/10 06:20:19;;;;;;;14.13;5.32;;;;;;;21.35;53.47;101357.03;5002567;28;20041;-65
2022/05/10 06:22:47;;;;;;;13.73;5.20;;;;;;;21.62;53.87;101363.56;5008775;28;20159;-68
2022/05/10 06:25:17;;;;;;;10.63;5.30;;;;;;;21.68;52.66;101362.03;5011765;28;20057;-65
2022/05/10 06:27:48;;;;;;;9.77;5.45;;;;;;;21.73;51.21;101356.94;4985784;28;20421;-69
2022/05/10 06:30:15;;;;;;;13.52;5.65;;;;;;;21.73;48.93;101350.53;5005000;28;20160;-69
2022/05/10 06:32:43;;;;;;;13.60;5.43;;;;;;;21.89;50.05;101348.44;4988061;28;20045;-65
2022/05/10 06:35:10;;;;;;;17.08;5.88;;;;;;;21.85;48.11;101348.38;5005387;28;20061;-66
2022/05/10 06:40:34;;;;;;;14.93;6.50;;;;;;;22.04;47.57;101345.50;5011374;28;20037;-73
2022/05/10 06:43:04;;;;;;;13.85;5.30;;;;;;;22.14;47.33;101346.88;4986617;28;20061;-71
2022/05/10 06:45:35;;;;;;;11.02;5.15;;;;;;;22.14;46.97;101355.28;4977983;28;20169;-71
2022/05/10 06:48:03;;;;;;;9.63;5.05;;;;;;;22.31;45.82;101346.34;5005073;28;20054;-71
2022/05/10 06:50:31;;;;;;;18.58;5.75;;;;;;;22.47;46.11;101355.41;4988506;28;20505;-68
2022/05/10 06:52:59;;;;;;;13.48;5.53;;;;;;;22.46;46.14;101350.16;5007933;28;20054;-68
2022/05/10 06:55:28;;;;;;;10.77;5.13;;;;;;;22.31;46.30;101354.75;4981036;28;20076;-68
2022/05/10 06:57:56;;;;;;;21.48;5.47;;;;;;;22.24;47.04;101349.03;4988771;28;20053;-68
2022/05/10 07:00:39;;;;;;;11.98;5.05;;;;;;;22.26;46.25;101349.47;5010601;28;20065;-72
2022/05/10 07:03:13;;;;;;;13.05;5.63;;;;;;;22.30;46.22;101347.50;4990451;28;20050;-71
2022/05/10 07:05:42;;;;;;;12.23;5.55;;;;;;;22.29;45.52;101341.09;5009486;28;20069;-69
2022/05/10 07:08:10;;;;;;;15.73;7.90;;;;;;;22.71;45.34;101348.56;4990854;28;20052;-69
2022/05/10 07:10:38;;;;;;;15.18;6.65;;;;;;;22.83;44.62;101348.31;4987642;28;20064;-69
2022/05/10 07:13:05;;;;;;;9.75;5.60;;;;;;;22.74;44.47;101351.41;4975860;28;20057;-68
2022/05/10 07:15:33;;;;;;;13.98;5.25;;;;;;;22.69;44.63;101346.13;4989152;28;20057;-69
2022/05/10 07:18:00;;;;;;;13.25;5.28;;;;;;;22.70;44.78;101350.53;5004682;28;20142;-68
2022/05/10 07:20:27;;;;;;;9.77;5.07;;;;;;;22.65;43.55;101333.25;5009071;28;20049;-69
2022/05/10 07:22:54;;;;;;;14.77;5.20;;;;;;;22.78;44.27;101341.03;5007061;28;20496;-69
2022/05/10 07:25:25;;;;;;;15.25;4.95;;;;;;;22.68;43.85;101349.31;5009072;28;20064;-70
2022/05/10 07:27:52;;;;;;;13.95;5.70;;;;;;;22.72;44.32;101347.34;4990182;28;20057;-69
2022/05/10 07:30:20;;;;;;;10.77;5.10;;;;;;;22.98;43.92;101348.13;4973353;28;20050;-69
2022/05/10 07:32:48;;;;;;;12.00;4.60;;;;;;;23.06;43.81;101346.22;4989312;28;20065;-70
2022/05/10 07:35:17;;;;;;;13.10;5.10;;;;;;;23.08;42.84;101339.00;5008620;28;20045;-68
2022/05/10 07:37:44;;;;;;;11.55;5.40;;;;;;;23.06;43.40;101338.59;5010563;28;20061;-67
2022/05/10 07:40:12;;;;;;;11.63;4.70;;;;;;;23.18;43.27;101341.16;5016386;28;20046;-67
2022/05/10 07:42:41;;;;;;;14.95;5.18;;;;;;;23.19;43.22;101339.13;4996248;28;20061;-63
2022/05/10 07:45:09;;;;;;;14.35;5.38;;;;;;;22.94;43.17;101347.28;4981496;28;20596;-65
2022/05/10 07:47:43;;;;;;;13.07;4.70;;;;;;;22.97;43.09;101348.50;4984950;28;20054;-64
2022/05/10 07:50:17;;;;;;;14.13;4.47;;;;;;;22.95;43.53;101342.47;5006963;28;20493;-64
2022/05/10 07:52:45;;;;;;;13.88;4.75;;;;;;;22.77;43.88;101347.06;5005985;28;20054;-63
2022/05/10 07:55:13;;;;;;;15.52;4.97;;;;;;;22.82;43.67;101341.09;5005420;28;20544;-63
2022/05/10 07:57:42;;;;;;;12.50;4.60;;;;;;;22.93;43.83;101337.22;5002944;28;20046;-63
2022/05/10 08:00:13;;;;;;;10.90;4.70;;;;;;;23.07;43.67;101345.00;5002451;28;20054;-64
2022/05/10 08:02:43;;;;;;;10.25;4.60;;;;;;;23.04;43.74;101342.97;4989797;28;20300;-66
2022/05/10 08:05:13;;;;;;;14.32;5.18;;;;;;;23.11;43.85;101340.25;4999588;28;20057;-64
2022/05/10 08:07:41;;;;;;;9.10;4.83;;;;;;;23.31;43.64;101336.91;4972065;28;20065;-63
2022/05/10 08:10:08;;;;;;;18.27;5.15;;;;;;;23.40;43.44;101339.41;5005328;28;20065;-68
2022/05/10 08:12:36;;;;;;;19.73;11.10;;;;;;;23.45;43.73;101347.50;5008018;28;20274;-68
2022/05/10 08:15:05;;;;;;;13.32;5.30;;;;;;;23.44;43.48;101340.28;5006110;28;20041;-69
2022/05/10 08:17:33;;;;;;;19.55;5.32;;;;;;;23.38;43.62;101347.41;5006385;28;20125;-65
2022/05/10 08:20:00;;;;;;;17.23;5.20;;;;;;;23.74;43.47;101352.25;4987871;28;20050;-65
2022/05/10 08:22:27;;;;;;;15.68;5.47;;;;;;;23.97;42.83;101352.84;5004371;28;20050;-68
2022/05/10 08:24:54;;;;;;;27.83;6.30;;;;;;;23.94;42.75;101347.19;5002693;28;20054;-68
2022/05/10 08:27:22;;;;;;;22.65;6.47;;;;;;;23.86;42.75;101348.31;4985994;28;20435;-67
2022/05/10 08:29:49;;;;;;;30.27;6.00;;;;;;;23.86;42.55;101351.97;4989517;28;20046;-67
2022/05/10 08:32:17;;;;;;;14.80;5.63;;;;;;;24.09;42.68;101348.97;5006846;28;20046;-66
2022/05/10 08:34:44;;;;;;;23.30;5.45;;;;;;;24.14;42.23;101343.78;5003715;28;20045;-63
2022/05/10 08:37:11;;;;;;;11.88;4.72;;;;;;;24.21;42.58;101343.84;5007239;28;20053;-63
2022/05/10 08:39:39;;;;;;;12.45;4.05;;;;;;;23.97;42.30;101350.03;5001801;28;20161;-63
2022/05/10 08:42:18;;;;;;;9.00;4.50;;;;;;;24.01;42.31;101344.47;4998434;28;20068;-62
2022/05/10 08:44:52;;;;;;;10.18;4.40;;;;;;;24.33;41.70;101331.44;4998219;28;20058;-66
2022/05/10 08:47:20;;;;;;;11.63;4.20;;;;;;;24.22;41.95;101325.75;4998562;28;20045;-61
2022/05/10 08:49:54;;;;;;;10.07;4.43;;;;;;;24.49;41.59;101323.53;5008755;28;20117;-63
2022/05/10 08:52:45;;;;;;;9.25;4.13;;;;;;;24.61;40.16;101330.81;5004634;28;20054;-62
2022/05/10 08:55:15;;;;;;;13.32;5.03;;;;;;;24.55;40.55;101329.59;5015045;28;20053;-70
2022/05/10 08:57:55;;;;;;;11.48;4.43;;;;;;;24.60;40.47;101332.03;4996740;28;20061;-68
2022/05/10 09:00:42;;;;;;;14.18;4.50;;;;;;;24.39;40.46;101332.72;4984960;28;20042;-68
2022/05/10 09:03:38;;;;;;;9.50;4.90;;;;;;;24.64;40.76;101327.22;4967533;28;20058;-67
2022/05/10 09:06:30;;;;;;;9.40;4.65;;;;;;;24.64;39.98;101335.66;4990587;28;20172;-67
2022/05/10 09:09:32;;;;;;;8.02;4.30;;;;;;;24.79;39.83;101328.94;5000505;28;20481;-67
2022/05/10 09:12:10;;;;;;;16.95;4.80;;;;;;;24.91;39.38;101328.59;4968424;28;20065;-63
2022/05/10 09:14:59;;;;;;;12.45;4.70;;;;;;;24.75;39.39;101331.75;4989783;28;20069;-68
2022/05/10 09:17:29;;;;;;;9.17;4.33;;;;;;;25.26;38.96;101326.72;4973256;28;20058;-67
2022/05/10 09:19:57;;;;;;;;;;;;;;;25.44;38.42;101318.34;4986113;28;20053;-68
2022/05/10 09:23:00;;;;;;;9.02;4.10;;;;;;;25.43;38.18;101328.00;4976552;28;20328;-64
2022/05/10 09:25:34;;;;;;;11.57;4.43;;;;;;;26.01;37.91;101322.84;5005985;28;20058;-70
2022/05/10 09:28:13;;;;;;;7.55;3.97;;;;;;;25.96;37.71;101326.06;4982295;28;20057;-64
2022/05/10 09:34:45;;;;;;;6.97;4.40;;;;;;;26.01;37.67;101320.03;5004739;28;20117;-67
2022/05/10 09:36:26;;;;;;;18.85;4.57;;;;;;;25.78;37.26;101316.78;4992934;28;20410;-69
2022/05/10 09:39:00;;;;;;;8.65;3.97;;;;;;;26.06;37.42;101304.72;4988664;28;20056;-66
2022/05/10 09:41:37;;;;;;;10.73;4.28;;;;;;;25.95;37.42;101306.69;4983534;28;20037;-68
2022/05/10 09:44:28;;;;;;;13.40;4.30;;;;;;;26.05;37.07;101303.91;4994608;28;20096;-68
2022/05/10 09:47:16;;;;;;;6.22;4.10;;;;;;;26.27;36.47;101302.69;4991162;28;20045;-66
2022/05/10 09:49:44;;;;;;;9.52;4.40;;;;;;;25.93;37.53;101307.09;4992665;28;20062;-64
2022/05/10 09:52:21;;;;;;;8.98;4.20;;;;;;;26.36;36.35;101305.88;4993429;28;20053;-64
2022/05/10 09:54:51;;;;;;;12.02;4.68;;;;;;;26.10;37.31;101299.88;5010381;28;20418;-68
2022/05/10 09:57:34;;;;;;;8.80;4.03;;;;;;;25.78;37.94;101304.69;4994492;28;20057;-68
2022/05/10 10:00:07;;;;;;;8.65;4.53;;;;;;;25.78;37.50;101311.13;5005741;28;20054;-64
2022/05/10 10:02:41;;;;;;;13.02;4.13;;;;;;;25.76;37.22;101307.91;5007538;28;20446;-63
2022/05/10 10:05:25;;;;;;;8.70;4.13;;;;;;;25.93;35.82;101307.09;4987601;28;20520;-64
2022/05/10 10:07:55;;;;;;;11.02;3.90;;;;;;;25.70;36.89;101292.56;4994271;28;20054;-63
2022/05/10 10:10:36;;;;;;;9.35;4.45;;;;;;;25.73;36.97;101285.31;5012731;28;20057;-67
2022/05/10 10:13:37;;;;;;;7.78;4.20;;;;;;;26.05;35.79;101289.78;5012163;28;20478;-67
2022/05/10 10:16:14;;;;;;;7.90;4.25;;;;;;;25.90;36.22;101288.16;5009273;28;20050;-64
2022/05/10 10:18:45;;;;;;;8.63;4.07;;;;;;;25.78;36.71;101296.22;5009757;28;20050;-63
2022/05/10 10:21:34;;;;;;;16.55;4.20;;;;;;;25.31;37.55;101294.50;4994783;28;20054;-68
2022/05/10 10:24:02;;;;;;;8.65;4.32;;;;;;;25.30;37.47;101292.88;4986206;28;20072;-70
2022/05/10 10:27:07;;;;;;;11.10;4.30;;;;;;;25.77;36.30;101288.97;5014925;28;20053;-66
2022/05/10 10:29:45;;;;;;;20.55;10.48;;;;;;;25.89;35.93;101286.53;4956112;28;20062;-68
2022/05/10 10:32:49;;;;;;;23.60;12.48;;;;;;;25.88;36.05;101281.28;4996057;28;20050;-69
2022/05/10 10:35:45;;;;;;;14.98;7.00;;;;;;;25.81;36.67;101296.22;4979265;28;20061;-69
2022/05/10 10:38:18;;;;;;;12.13;6.78;;;;;;;25.64;37.53;101291.38;4997092;28;20061;-70
2022/05/10 10:41:18;;;;;;;14.38;6.50;;;;;;;25.76;36.21;101295.81;4993458;28;20065;-69
2022/05/10 10:44:03;;;;;;;10.10;6.45;;;;;;;25.77;36.00;101288.97;4964767;28;20429;-70
2022/05/10 10:46:52;;;;;;;11.88;6.70;;;;;;;25.77;36.10;101292.56;5007321;28;20072;-70
2022/05/10 10:49:24;;;;;;;13.80;6.50;;;;;;;26.00;35.79;101287.34;5009620;28;20620;-69
2022/05/10 10:51:51;;;;;;;14.25;8.32;;;;;;;25.96;36.29;101286.53;4996394;28;20042;-68
2022/05/10 10:54:22;;;;;;;11.25;5.38;;;;;;;26.04;35.32;101288.19;4997950;28;20274;-64
2022/05/10 10:57:15;;;;;;;12.27;6.88;;;;;;;26.11;35.41;101279.69;5006010;28;20057;-65
2022/05/10 10:59:59;;;;;;;11.20;7.43;;;;;;;26.24;35.28;101275.22;5012115;28;20058;-64
2022/05/10 11:03:05;;;;;;;17.65;5.82;;;;;;;26.04;34.93;101279.72;4982496;28;20065;-65
2022/05/10 11:06:03;;;;;;;9.97;4.83;;;;;;;26.12;35.01;101281.31;5010384;28;20045;-65
2022/05/10 11:08:47;;;;;;;10.52;5.15;;;;;;;26.14;34.17;101276.06;5000861;28;20049;-71
2022/05/10 11:11:30;;;;;;;10.77;5.63;;;;;;;26.07;35.15;101270.41;4996045;28;20050;-71
2022/05/10 11:14:20;;;;;;;13.73;6.50;;;;;;;26.00;35.55;101261.94;5005464;28;20050;-71
2022/05/10 11:17:18;;;;;;;14.90;5.53;;;;;;;26.27;35.24;101256.69;5012549;28;20068;-70
2022/05/10 11:20:12;;;;;;;9.70;5.15;;;;;;;26.40;35.38;101252.19;5008054;28;20037;-70
2022/05/10 11:23:07;;;;;;;10.80;4.57;;;;;;;26.63;34.34;101249.69;4973611;28;20076;-71
2022/05/10 11:25:58;;;;;;;11.50;5.85;;;;;;;26.67;33.90;101254.13;5002586;28;20370;-71
2022/05/10 11:28:38;;;;;;;9.95;6.18;;;;;;;26.90;34.20;101250.03;4989354;28;20058;-65
2022/05/10 11:31:09;;;;;;;15.40;5.20;;;;;;;27.03;33.67;101243.47;5002882;28;20831;-71
2022/05/10 11:34:05;;;;;;;12.98;4.90;;;;;;;27.35;33.01;101235.66;4995370;28;20497;-71
2022/05/10 11:36:35;;;;;;;16.27;4.72;;;;;;;27.38;32.64;101231.16;5014603;28;20052;-71
2022/05/10 11:39:21;;;;;;;8.48;4.38;;;;;;;27.58;33.30;101233.00;5015962;28;20061;-71
2022/05/10 11:42:11;;;;;;;8.05;4.43;;;;;;;27.65;31.92;101226.50;5007344;28;20526;-70
2022/05/10 11:44:47;;;;;;;11.30;4.57;;;;;;;27.46;32.86;101236.34;4998910;28;20050;-71
2022/05/10 11:47:43;;;;;;;14.05;4.03;;;;;;;27.42;32.44;101246.09;4989551;28;20060;-70
2022/05/10 11:50:39;;;;;;;12.13;3.95;;;;;;;27.38;32.54;101234.00;5000390;28;20108;-71
2022/05/10 11:53:35;;;;;;;16.52;9.60;;;;;;;27.26;32.93;101225.97;4973158;28;20072;-69
2022/05/10 11:56:02;;;;;;;17.20;8.10;;;;;;;27.16;31.89;101218.34;5003228;28;20057;-69
2022/05/10 11:58:31;;;;;;;10.27;5.68;;;;;;;27.05;32.54;101217.63;4978058;28;20046;-69
2022/05/10 12:01:04;;;;;;;7.85;3.78;;;;;;;27.16;32.63;101212.69;4995221;28;20054;-69
2022/05/10 12:03:43;;;;;;;16.40;6.65;;;;;;;27.14;32.69;101220.78;5015566;28;20060;-71